Time;durP1;ratioP1;P1;durP2;ratioP2;P2;SDS_P1;SDS_P2;PMS_P1;PMS_P2;Temp;Humidity;BMP_temperature;BMP_pressure;BME280_temperature;BME280_humidity;BME280_pressure;Samples;Min_cycle;Max_cycle;Signal;HPM_P1;HPM_P2
2021/12/09 00:02:14;;;;;;;62.50;35.90;;;;;;;;;;5028764;28;20038;-80
2021/12/09 00:04:41;;;;;;;30.70;20.00;;;;;;;;;;5013531;28;20492;-81
2021/12/09 00:07:07;;;;;;;31.23;20.95;;;;;;;;;;5013393;28;20368;-80
2021/12/09 00:09:33;;;;;;;40.63;27.52;;;;;;;;;;5028755;28;20053;-81
2021/12/09 00:11:59;;;;;;;46.90;29.98;;;;;;;;;;5028717;28;20033;-81
2021/12/09 00:14:28;;;;;;;57.90;33.55;;;;;;;;;;5028614;28;20036;-80
2021/12/09 00:16:54;;;;;;;42.97;24.65;;;;;;;;;;5013574;28;20034;-81
2021/12/09 00:19:21;;;;;;;27.83;18.92;;;;;;;;;;5028508;28;20022;-80
2021/12/09 00:21:47;;;;;;;30.80;19.85;;;;;;;;;;5013404;28;20068;-80
2021/12/09 00:24:13;;;;;;;32.15;21.08;;;;;;;;;;5017099;28;20029;-80
2021/12/09 00:26:39;;;;;;;28.30;17.58;;;;;;;;;;5017439;28;20025;-80
2021/12/09 00:29:06;;;;;;;28.02;17.02;;;;;;;;;;5017294;28;20030;-80
2021/12/09 00:31:33;;;;;;;23.10;14.98;;;;;;;;;;5017462;28;20030;-80
2021/12/09 00:34:00;;;;;;;30.02;19.15;;;;;;;;;;5017191;28;20034;-80
2021/12/09 00:36:27;;;;;;;35.80;22.25;;;;;;;;;;5017475;28;20036;-80
2021/12/09 00:38:57;;;;;;;56.25;37.20;;;;;;;;;;5017107;28;20033;-80
2021/12/09 00:41:23;;;;;;;46.65;28.90;;;;;;;;;;5032296;28;20113;-80
2021/12/09 00:43:50;;;;;;;43.88;26.67;;;;;;;;;;5016978;28;20507;-80
2021/12/09 00:46:16;;;;;;;45.40;28.23;;;;;;;;;;5016909;28;20030;-80
2021/12/09 00:48:42;;;;;;;31.77;21.98;;;;;;;;;;5017071;28;20061;-80
2021/12/09 00:51:09;;;;;;;39.33;24.52;;;;;;;;;;5016964;28;20026;-80
2021/12/09 00:53:35;;;;;;;30.73;20.17;;;;;;;;;;5017109;28;20030;-80
2021/12/09 00:56:02;;;;;;;33.30;19.70;;;;;;;;;;5016703;28;20117;-80
2021/12/09 00:58:28;;;;;;;27.08;16.92;;;;;;;;;;5017041;28;20025;-80
2021/12/09 01:00:54;;;;;;;27.58;18.05;;;;;;;;;;5017221;28;20025;-80
2021/12/09 01:03:20;;;;;;;26.90;18.90;;;;;;;;;;5016662;28;21095;-80
2021/12/09 01:05:46;;;;;;;29.58;18.98;;;;;;;;;;5016727;28;20391;-80
2021/12/09 01:08:13;;;;;;;43.03;24.92;;;;;;;;;;5016723;28;20025;-80
2021/12/09 01:10:40;;;;;;;41.92;27.10;;;;;;;;;;5016661;28;20385;-80
2021/12/09 01:13:06;;;;;;;46.72;27.95;;;;;;;;;;5016592;28;20053;-80
2021/12/09 01:15:33;;;;;;;33.75;21.08;;;;;;;;;;5016550;28;20172;-80
2021/12/09 01:17:59;;;;;;;27.98;18.60;;;;;;;;;;5031699;28;20030;-80
2021/12/09 01:20:25;;;;;;;26.75;16.83;;;;;;;;;;5016467;28;20026;-80
2021/12/09 01:22:56;;;;;;;26.65;16.92;;;;;;;;;;5016619;28;20097;-80
2021/12/09 01:25:23;;;;;;;29.23;19.38;;;;;;;;;;5016438;28;20033;-80
2021/12/09 01:27:52;;;;;;;38.92;24.63;;;;;;;;;;5016349;28;20026;-80
2021/12/09 01:30:19;;;;;;;36.72;24.65;;;;;;;;;;5016244;28;20053;-80
2021/12/09 01:32:51;;;;;;;28.27;18.42;;;;;;;;;;5015834;28;20122;-80
2021/12/09 01:35:19;;;;;;;26.35;17.42;;;;;;;;;;5015922;28;20038;-80
2021/12/09 01:37:46;;;;;;;31.55;19.45;;;;;;;;;;5016257;28;20037;-79
2021/12/09 01:40:13;;;;;;;30.70;19.77;;;;;;;;;;5016040;28;20035;-79
2021/12/09 01:42:39;;;;;;;29.52;19.08;;;;;;;;;;5015579;28;20037;-80
2021/12/09 01:45:06;;;;;;;29.17;18.30;;;;;;;;;;5015863;28;20030;-80
2021/12/09 01:47:32;;;;;;;31.10;20.23;;;;;;;;;;5015950;28;20456;-80
2021/12/09 01:49:58;;;;;;;31.73;21.38;;;;;;;;;;5015886;28;20068;-80
2021/12/09 01:52:25;;;;;;;33.00;20.30;;;;;;;;;;5015798;28;20065;-80
2021/12/09 01:54:51;;;;;;;31.98;20.92;;;;;;;;;;5031063;28;20480;-79
2021/12/09 01:57:18;;;;;;;29.48;19.50;;;;;;;;;;5015857;28;20038;-80
2021/12/09 01:59:44;;;;;;;28.77;18.17;;;;;;;;;;5015814;28;20022;-79
2021/12/09 02:02:10;;;;;;;20.48;14.20;;;;;;;;;;5015635;28;20033;-80
2021/12/09 02:04:36;;;;;;;25.02;16.50;;;;;;;;;;5015654;28;20105;-80
2021/12/09 02:07:03;;;;;;;28.00;20.27;;;;;;;;;;5015528;28;20025;-80
2021/12/09 02:09:29;;;;;;;25.65;18.63;;;;;;;;;;5015581;28;20115;-79
2021/12/09 02:11:55;;;;;;;20.40;14.23;;;;;;;;;;5015589;28;20030;-79
2021/12/09 02:14:21;;;;;;;20.17;13.25;;;;;;;;;;5030576;28;20384;-80
2021/12/09 02:16:48;;;;;;;20.52;12.73;;;;;;;;;;5015357;28;20473;-80
2021/12/09 02:19:14;;;;;;;27.15;16.60;;;;;;;;;;5015257;28;20103;-80
2021/12/09 02:21:41;;;;;;;26.65;17.90;;;;;;;;;;5015694;28;20037;-80
2021/12/09 02:24:09;;;;;;;32.97;20.60;;;;;;;;;;5015145;28;20197;-80
2021/12/09 02:26:40;;;;;;;22.23;13.48;;;;;;;;;;5014966;28;20093;-80
2021/12/09 02:29:07;;;;;;;17.73;11.57;;;;;;;;;;5015039;28;20026;-80
2021/12/09 02:31:34;;;;;;;18.02;11.13;;;;;;;;;;5015113;28;20032;-79
2021/12/09 02:34:00;;;;;;;16.20;11.70;;;;;;;;;;5015188;28;20033;-80
2021/12/09 02:36:27;;;;;;;16.10;11.40;;;;;;;;;;5014757;28;20044;-80
2021/12/09 02:38:53;;;;;;;18.00;11.32;;;;;;;;;;5015191;28;20488;-80
2021/12/09 02:41:24;;;;;;;19.60;12.85;;;;;;;;;;5014972;28;20022;-80
2021/12/09 02:43:55;;;;;;;16.88;11.60;;;;;;;;;;5014643;28;20556;-80
2021/12/09 02:46:23;;;;;;;20.45;13.18;;;;;;;;;;5014061;28;20061;-80
2021/12/09 02:48:49;;;;;;;15.20;11.90;;;;;;;;;;5014772;28;20022;-80
2021/12/09 02:51:16;;;;;;;15.20;11.30;;;;;;;;;;5014818;28;20029;-80
2021/12/09 02:53:42;;;;;;;19.95;12.75;;;;;;;;;;5014818;28;20034;-80
2021/12/09 02:56:08;;;;;;;26.15;16.40;;;;;;;;;;5029515;28;20034;-80
2021/12/09 02:58:35;;;;;;;21.58;13.80;;;;;;;;;;5014612;28;20473;-80
2021/12/09 03:01:08;;;;;;;18.58;13.52;;;;;;;;;;5029597;28;20473;-80
2021/12/09 03:03:34;;;;;;;22.25;14.35;;;;;;;;;;5029583;28;20029;-80
2021/12/09 03:06:01;;;;;;;38.60;22.25;;;;;;;;;;5014601;28;20124;-80
2021/12/09 03:08:35;;;;;;;32.17;20.17;;;;;;;;;;5014443;28;20054;-80
2021/12/09 03:11:09;;;;;;;26.85;16.08;;;;;;;;;;5029560;28;20123;-80
2021/12/09 03:13:36;;;;;;;34.17;19.95;;;;;;;;;;5014352;28;20552;-80
2021/12/09 03:16:03;;;;;;;33.55;19.10;;;;;;;;;;5014212;28;20424;-80
2021/12/09 03:18:29;;;;;;;44.67;25.77;;;;;;;;;;5029403;28;20133;-80
2021/12/09 03:20:55;;;;;;;35.35;23.38;;;;;;;;;;5013945;28;20034;-80
2021/12/09 03:23:23;;;;;;;38.10;22.85;;;;;;;;;;5014143;28;20121;-80
2021/12/09 03:25:49;;;;;;;32.17;19.83;;;;;;;;;;5014285;28;20034;-80
2021/12/09 03:28:16;;;;;;;34.33;21.48;;;;;;;;;;5014324;28;20473;-80
2021/12/09 03:30:42;;;;;;;25.60;16.77;;;;;;;;;;5014087;28;20052;-80
2021/12/09 03:33:08;;;;;;;24.35;15.57;;;;;;;;;;5013889;28;20113;-80
2021/12/09 03:35:34;;;;;;;23.30;15.18;;;;;;;;;;5013958;28;20038;-80
2021/12/09 03:38:00;;;;;;;18.40;11.73;;;;;;;;;;5013809;28;20057;-80
2021/12/09 03:40:27;;;;;;;18.63;12.30;;;;;;;;;;5029080;28;20533;-80
2021/12/09 03:42:53;;;;;;;19.10;11.40;;;;;;;;;;5013436;28;20480;-80
2021/12/09 03:45:23;;;;;;;17.67;11.73;;;;;;;;;;5013875;28;20022;-81
2021/12/09 03:47:49;;;;;;;17.23;11.52;;;;;;;;;;5028872;28;20033;-80
2021/12/09 03:50:17;;;;;;;19.27;11.43;;;;;;;;;;5013574;28;20049;-81
2021/12/09 03:52:43;;;;;;;17.63;12.73;;;;;;;;;;5013603;28;20543;-79
2021/12/09 03:55:10;;;;;;;19.88;14.50;;;;;;;;;;5013466;28;20038;-80
2021/12/09 03:57:36;;;;;;;20.75;13.38;;;;;;;;;;5013286;28;20021;-80
2021/12/09 04:00:05;;;;;;;18.35;12.60;;;;;;;;;;5013541;28;20033;-80
2021/12/09 04:02:31;;;;;;;19.02;12.32;;;;;;;;;;5013468;28;20030;-80
2021/12/09 04:04:57;;;;;;;19.15;12.73;;;;;;;;;;5013366;28;20097;-80
2021/12/09 04:07:23;;;;;;;16.23;12.20;;;;;;;;;;5013432;28;20029;-80
2021/12/09 04:09:49;;;;;;;16.05;11.50;;;;;;;;;;5028480;28;20026;-80
2021/12/09 04:12:16;;;;;;;18.05;12.35;;;;;;;;;;5013476;28;20101;-80
2021/12/09 04:14:42;;;;;;;18.90;12.80;;;;;;;;;;5013268;28;20053;-80
2021/12/09 04:17:08;;;;;;;19.00;12.25;;;;;;;;;;5013528;28;20034;-80
2021/12/09 04:19:35;;;;;;;20.10;13.50;;;;;;;;;;5013315;28;20082;-80
2021/12/09 04:22:01;;;;;;;28.48;17.77;;;;;;;;;;5013187;28;20029;-80
2021/12/09 04:24:27;;;;;;;30.65;19.25;;;;;;;;;;5013326;28;20080;-80
2021/12/09 04:26:54;;;;;;;49.08;29.60;;;;;;;;;;5028439;28;20033;-80
2021/12/09 04:29:20;;;;;;;32.85;19.60;;;;;;;;;;5013497;28;20025;-80
2021/12/09 04:31:47;;;;;;;31.83;19.10;;;;;;;;;;5013179;28;20489;-80
2021/12/09 04:34:14;;;;;;;20.20;12.18;;;;;;;;;;5013331;28;20048;-80
2021/12/09 04:36:40;;;;;;;20.88;14.15;;;;;;;;;;5012927;28;20026;-80
2021/12/09 04:39:06;;;;;;;31.80;21.20;;;;;;;;;;5029033;28;20030;-80
2021/12/09 04:41:33;;;;;;;29.27;18.70;;;;;;;;;;5028490;28;20025;-80
2021/12/09 04:43:59;;;;;;;33.58;20.27;;;;;;;;;;5028054;28;20046;-80
2021/12/09 04:46:25;;;;;;;31.95;20.58;;;;;;;;;;5028490;28;20053;-80
2021/12/09 04:48:51;;;;;;;43.03;25.45;;;;;;;;;;5028173;28;20028;-80
2021/12/09 04:51:18;;;;;;;41.22;24.38;;;;;;;;;;5028422;28;20045;-80
2021/12/09 04:53:44;;;;;;;38.10;22.85;;;;;;;;;;5028181;28;20022;-80
2021/12/09 04:56:10;;;;;;;36.35;21.35;;;;;;;;;;5028247;28;20068;-80
2021/12/09 04:58:36;;;;;;;33.15;22.77;;;;;;;;;;5013135;28;20030;-80
2021/12/09 05:01:04;;;;;;;32.55;21.55;;;;;;;;;;5013267;28;20030;-80
2021/12/09 05:03:31;;;;;;;31.30;20.35;;;;;;;;;;5013130;28;20038;-80
2021/12/09 05:05:57;;;;;;;36.58;22.92;;;;;;;;;;5013144;28;20061;-80
2021/12/09 05:08:27;;;;;;;33.17;21.17;;;;;;;;;;5013932;28;20018;-80
2021/12/09 05:13:24;;;;;;;42.97;28.58;;;;;;;;;;5016675;28;20478;-80
2021/12/09 05:15:51;;;;;;;32.85;21.00;;;;;;;;;;5031674;28;20455;-81
2021/12/09 05:18:17;;;;;;;31.45;20.10;;;;;;;;;;5016561;28;20034;-81
2021/12/09 05:20:44;;;;;;;33.45;22.20;;;;;;;;;;5016527;28;20029;-81
2021/12/09 05:23:11;;;;;;;57.13;34.63;;;;;;;;;;5016666;28;20026;-81
2021/12/09 05:25:37;;;;;;;67.72;43.53;;;;;;;;;;5016388;28;20041;-81
2021/12/09 05:28:03;;;;;;;61.15;36.50;;;;;;;;;;5016446;28;20033;-81
2021/12/09 05:32:07;;;;;;;42.05;26.88;;;;;;;;;;5032140;28;20494;-80
2021/12/09 05:33:25;;;;;;;109.88;58.53;;;;;;;;;;5017025;28;20037;-80
2021/12/09 05:35:52;;;;;;;128.60;67.95;;;;;;;;;;5031560;28;20501;-80
2021/12/09 05:38:18;;;;;;;127.03;73.75;;;;;;;;;;5031539;28;20456;-81
2021/12/09 05:40:45;;;;;;;61.78;40.28;;;;;;;;;;5016155;28;20038;-81
2021/12/09 05:43:11;;;;;;;37.70;24.80;;;;;;;;;;5015897;28;20183;-81
2021/12/09 05:45:37;;;;;;;24.52;16.75;;;;;;;;;;5031540;28;20447;-81
2021/12/09 05:48:04;;;;;;;31.00;21.10;;;;;;;;;;5016227;28;20033;-81
2021/12/09 05:50:30;;;;;;;42.88;28.30;;;;;;;;;;5031488;28;20369;-80
2021/12/09 05:52:56;;;;;;;48.65;31.10;;;;;;;;;;5016001;28;20021;-81
2021/12/09 05:55:33;;;;;;;56.30;38.45;;;;;;;;;;5031116;28;20444;-81
2021/12/09 05:57:59;;;;;;;62.55;40.13;;;;;;;;;;5015979;28;20030;-81
2021/12/09 06:00:25;;;;;;;43.33;28.42;;;;;;;;;;5030667;28;20034;-81
2021/12/09 06:02:51;;;;;;;41.63;25.25;;;;;;;;;;5015763;28;20029;-81
2021/12/09 06:05:18;;;;;;;39.05;27.15;;;;;;;;;;5016066;28;20065;-81
2021/12/09 06:07:45;;;;;;;40.35;25.50;;;;;;;;;;5030775;28;20034;-81
2021/12/09 06:10:11;;;;;;;41.65;27.52;;;;;;;;;;5015707;28;20053;-80
2021/12/09 06:12:38;;;;;;;47.70;31.17;;;;;;;;;;5015526;28;20097;-81
2021/12/09 06:15:04;;;;;;;40.17;25.50;;;;;;;;;;5015148;28;20026;-82
2021/12/09 06:17:31;;;;;;;32.15;21.70;;;;;;;;;;5015548;28;20437;-81
2021/12/09 06:19:57;;;;;;;35.55;22.15;;;;;;;;;;5015145;28;20460;-82
2021/12/09 06:22:23;;;;;;;72.65;51.58;;;;;;;;;;5015313;28;20029;-81
2021/12/09 06:24:50;;;;;;;103.82;64.93;;;;;;;;;;5014672;28;20132;-82
2021/12/09 06:27:16;;;;;;;142.88;91.72;;;;;;;;;;5027730;28;20042;-82
2021/12/09 06:29:42;;;;;;;129.93;88.78;;;;;;;;;;5013673;28;20060;-82
2021/12/09 06:32:09;;;;;;;96.53;65.07;;;;;;;;;;5013595;28;20037;-80
2021/12/09 06:34:36;;;;;;;63.00;41.85;;;;;;;;;;5016652;28;20029;-82
2021/12/09 06:37:05;;;;;;;52.58;37.00;;;;;;;;;;5032257;28;20396;-81
2021/12/09 06:39:32;;;;;;;48.60;33.53;;;;;;;;;;5026983;28;20029;-81
2021/12/09 06:41:58;;;;;;;50.92;33.58;;;;;;;;;;5020294;28;20109;-81
2021/12/09 06:44:24;;;;;;;46.08;31.48;;;;;;;;;;4990635;28;20567;-80
2021/12/09 06:46:50;;;;;;;91.80;59.33;;;;;;;;;;4992058;28;20038;-82
2021/12/09 06:49:16;;;;;;;145.13;93.40;;;;;;;;;;4993119;28;20030;-80
2021/12/09 06:51:42;;;;;;;81.72;50.95;;;;;;;;;;4991130;28;20052;-82
2021/12/09 06:54:09;;;;;;;77.22;47.60;;;;;;;;;;4993011;28;20482;-82
2021/12/09 06:56:35;;;;;;;68.28;43.15;;;;;;;;;;4992207;28;20034;-81
2021/12/09 06:59:01;;;;;;;62.38;39.53;;;;;;;;;;4992721;28;20451;-81
2021/12/09 07:01:28;;;;;;;65.95;43.55;;;;;;;;;;4991020;28;20046;-82
2021/12/09 07:03:54;;;;;;;74.63;48.70;;;;;;;;;;4992905;28;20466;-81
2021/12/09 07:06:23;;;;;;;58.05;39.85;;;;;;;;;;4992679;28;20030;-80
2021/12/09 07:08:52;;;;;;;44.63;30.92;;;;;;;;;;4993133;28;20056;-82
2021/12/09 07:11:20;;;;;;;46.60;32.75;;;;;;;;;;4993123;28;20026;-79
2021/12/09 07:13:47;;;;;;;52.00;32.67;;;;;;;;;;4992442;28;20497;-80
2021/12/09 07:16:15;;;;;;;44.60;28.73;;;;;;;;;;4992673;28;20385;-83
2021/12/09 07:18:48;;;;;;;43.35;26.60;;;;;;;;;;4992446;28;20062;-83
2021/12/09 07:21:17;;;;;;;42.40;26.45;;;;;;;;;;4992076;28;20437;-84
2021/12/09 07:23:54;;;;;;;36.70;24.70;;;;;;;;;;4992067;28;20034;-82
2021/12/09 07:26:38;;;;;;;37.83;24.80;;;;;;;;;;4995578;28;20410;-83
2021/12/09 07:29:08;;;;;;;39.22;25.50;;;;;;;;;;4992052;28;20026;-83
2021/12/09 07:31:37;;;;;;;43.08;28.45;;;;;;;;;;4991563;28;20484;-81
2021/12/09 07:34:16;;;;;;;44.05;31.92;;;;;;;;;;4994579;28;20084;-83
2021/12/09 07:37:05;;;;;;;43.47;30.55;;;;;;;;;;4993425;28;20046;-86
2021/12/09 07:39:34;;;;;;;49.03;35.08;;;;;;;;;;4974527;28;20049;-86
2021/12/09 07:42:06;;;;;;;60.92;42.20;;;;;;;;;;4993402;28;20034;-84
2021/12/09 07:44:46;;;;;;;64.95;45.15;;;;;;;;;;4992910;28;20166;-84
2021/12/09 07:47:17;;;;;;;80.40;52.75;;;;;;;;;;4994081;28;20068;-83
2021/12/09 07:49:44;;;;;;;57.97;39.08;;;;;;;;;;4991160;28;20026;-83
2021/12/09 07:52:14;;;;;;;52.55;37.08;;;;;;;;;;4993153;28;20109;-82
2021/12/09 07:54:43;;;;;;;60.38;43.28;;;;;;;;;;4991956;28;20058;-84
2021/12/09 07:57:12;;;;;;;73.55;51.53;;;;;;;;;;4994927;28;20042;-75
2021/12/09 07:59:58;;;;;;;80.78;53.55;;;;;;;;;;4993163;28;20481;-88
2021/12/09 08:02:45;;;;;;;69.80;50.75;;;;;;;;;;4995166;28;20053;-86
2021/12/09 08:05:40;;;;;;;63.63;45.05;;;;;;;;;;4990162;28;20445;-84
2021/12/09 08:08:07;;;;;;;57.58;41.03;;;;;;;;;;4982752;28;20047;-84
2021/12/09 08:10:37;;;;;;;73.97;47.42;;;;;;;;;;4992757;28;20030;-82
2021/12/09 08:13:04;;;;;;;93.45;64.07;;;;;;;;;;4990781;28;20142;-81
2021/12/09 08:15:35;;;;;;;89.15;57.72;;;;;;;;;;4989727;28;20077;-81
2021/12/09 08:18:14;;;;;;;78.82;52.90;;;;;;;;;;4991817;28;20023;-83
2021/12/09 08:20:41;;;;;;;85.65;57.33;;;;;;;;;;4991739;28;20070;-84
2021/12/09 08:23:08;;;;;;;106.13;70.25;;;;;;;;;;4992484;28;20034;-85
2021/12/09 08:25:34;;;;;;;68.65;47.30;;;;;;;;;;4991189;28;20041;-82
2021/12/09 08:28:00;;;;;;;63.10;43.83;;;;;;;;;;4991279;28;20041;-80
2021/12/09 08:30:27;;;;;;;87.55;63.13;;;;;;;;;;4991578;28;20030;-83
2021/12/09 08:32:53;;;;;;;108.53;72.85;;;;;;;;;;4991225;28;20440;-82
2021/12/09 08:35:20;;;;;;;87.68;62.67;;;;;;;;;;4990753;28;20077;-84
2021/12/09 08:37:47;;;;;;;86.82;62.10;;;;;;;;;;4991131;28;20057;-81
2021/12/09 08:40:14;;;;;;;98.25;65.85;;;;;;;;;;4991704;28;20034;-81
2021/12/09 08:42:40;;;;;;;123.03;82.43;;;;;;;;;;4992954;28;20491;-82
2021/12/09 08:45:09;;;;;;;174.90;112.18;;;;;;;;;;5029061;28;20385;-81
2021/12/09 08:47:36;;;;;;;88.30;59.72;;;;;;;;;;5012770;28;20500;-81
2021/12/09 08:50:03;;;;;;;55.40;37.15;;;;;;;;;;5012716;28;20030;-81
2021/12/09 08:52:29;;;;;;;63.35;43.58;;;;;;;;;;5014854;28;20033;-81
2021/12/09 08:54:55;;;;;;;65.50;46.45;;;;;;;;;;5013771;28;20099;-82
2021/12/09 08:57:23;;;;;;;102.07;65.80;;;;;;;;;;5012629;28;20041;-81
2021/12/09 08:59:49;;;;;;;82.75;56.75;;;;;;;;;;5014354;28;20025;-80
2021/12/09 09:02:15;;;;;;;74.38;52.03;;;;;;;;;;5013544;28;20160;-80
2021/12/09 09:04:42;;;;;;;33.35;25.42;;;;;;;;;;5014656;28;20041;-80
2021/12/09 09:07:14;;;;;;;29.88;20.85;;;;;;;;;;5014617;28;20124;-81
2021/12/09 09:09:40;;;;;;;24.08;18.55;;;;;;;;;;5013976;28;20022;-80
2021/12/09 09:12:09;;;;;;;22.77;16.15;;;;;;;;;;5013143;28;20032;-77
2021/12/09 09:14:35;;;;;;;21.98;15.57;;;;;;;;;;5011120;28;20042;-77
2021/12/09 09:17:04;;;;;;;22.15;16.30;;;;;;;;;;5012676;28;20069;-78
2021/12/09 09:19:30;;;;;;;22.13;16.85;;;;;;;;;;5014130;28;20485;-77
2021/12/09 09:21:56;;;;;;;22.30;16.20;;;;;;;;;;5014289;28;20053;-77
2021/12/09 09:24:23;;;;;;;22.20;16.15;;;;;;;;;;5013951;28;20076;-78
2021/12/09 09:26:49;;;;;;;21.83;15.32;;;;;;;;;;5028749;28;20026;-77
2021/12/09 09:29:15;;;;;;;20.00;13.05;;;;;;;;;;5020924;28;20025;-77
2021/12/09 09:31:42;;;;;;;18.45;14.73;;;;;;;;;;5014371;28;20503;-78
2021/12/09 09:34:10;;;;;;;21.23;15.00;;;;;;;;;;5013779;28;20026;-78
2021/12/09 09:36:39;;;;;;;19.55;13.25;;;;;;;;;;5013922;28;20054;-78
2021/12/09 09:39:16;;;;;;;15.27;10.88;;;;;;;;;;5013794;28;20571;-81
2021/12/09 09:41:42;;;;;;;16.30;12.38;;;;;;;;;;5014442;28;20112;-86
2021/12/09 09:44:16;;;;;;;16.83;12.00;;;;;;;;;;5013501;28;20092;-83
2021/12/09 09:46:42;;;;;;;14.32;10.75;;;;;;;;;;4994632;28;20752;-82
2021/12/09 09:49:09;;;;;;;26.05;19.15;;;;;;;;;;4993865;28;20112;-80
2021/12/09 09:51:36;;;;;;;23.67;16.40;;;;;;;;;;4993161;28;20030;-80
2021/12/09 09:54:04;;;;;;;18.92;15.10;;;;;;;;;;4994779;28;20097;-82
2021/12/09 09:56:32;;;;;;;20.75;13.90;;;;;;;;;;5023924;28;20042;-81
2021/12/09 09:59:00;;;;;;;16.38;11.60;;;;;;;;;;5013686;28;20029;-81
2021/12/09 10:01:27;;;;;;;17.30;12.95;;;;;;;;;;5020245;28;20079;-81
2021/12/09 10:04:09;;;;;;;13.80;10.98;;;;;;;;;;5033655;28;20050;-79
2021/12/09 10:06:35;;;;;;;14.73;9.98;;;;;;;;;;5033474;28;20121;-82
2021/12/09 10:09:01;;;;;;;12.50;8.57;;;;;;;;;;5033285;28;20083;-80
2021/12/09 10:11:28;;;;;;;15.35;9.88;;;;;;;;;;5033117;28;20026;-70
2021/12/09 10:14:07;;;;;;;12.85;8.88;;;;;;;;;;5033552;28;20025;-82
2021/12/09 10:16:34;;;;;;;13.43;9.82;;;;;;;;;;5033108;28;20034;-81
2021/12/09 10:19:00;;;;;;;15.68;11.30;;;;;;;;;;5032899;28;20036;-80
2021/12/09 10:21:28;;;;;;;11.60;8.73;;;;;;;;;;5033053;28;20120;-80
2021/12/09 10:23:59;;;;;;;10.90;8.55;;;;;;;;;;5033277;28;20108;-81
2021/12/09 10:26:26;;;;;;;13.90;10.98;;;;;;;;;;5031343;28;20634;-79
2021/12/09 10:29:18;;;;;;;14.63;11.20;;;;;;;;;;5033087;28;20035;-82
2021/12/09 10:31:49;;;;;;;13.88;11.05;;;;;;;;;;5026897;28;20037;-83
2021/12/09 10:36:45;;;;;;;13.13;9.30;;;;;;;;;;5031904;28;20041;-77
2021/12/09 10:39:19;;;;;;;11.93;8.57;;;;;;;;;;5026728;28;20021;-77
2021/12/09 10:41:45;;;;;;;11.18;9.30;;;;;;;;;;4999755;28;20040;-72
2021/12/09 10:44:12;;;;;;;15.27;9.93;;;;;;;;;;5031996;28;20053;-76
2021/12/09 10:47:06;;;;;;;13.60;10.75;;;;;;;;;;5032850;28;20111;-81
2021/12/09 10:49:40;;;;;;;14.50;10.10;;;;;;;;;;5032351;28;20033;-80
2021/12/09 10:52:25;;;;;;;13.13;8.73;;;;;;;;;;5032423;28;20042;-80
2021/12/09 10:54:51;;;;;;;9.25;7.07;;;;;;;;;;5047267;28;20480;-80
2021/12/09 10:57:23;;;;;;;7.25;5.70;;;;;;;;;;5032081;28;20535;-79
2021/12/09 10:59:49;;;;;;;8.73;5.72;;;;;;;;;;5032277;28;20022;-78
2021/12/09 11:02:16;;;;;;;54.53;32.08;;;;;;;;;;5031484;28;20025;-78
2021/12/09 11:04:56;;;;;;;10.27;5.88;;;;;;;;;;5032506;28;20121;-71
2021/12/09 11:07:28;;;;;;;7.03;5.75;;;;;;;;;;5036675;28;20107;-78
2021/12/09 11:10:12;;;;;;;7.38;6.05;;;;;;;;;;5009028;28;20105;-80
2021/12/09 11:12:39;;;;;;;9.70;7.63;;;;;;;;;;5017702;28;20038;-81
2021/12/09 11:15:05;;;;;;;12.52;8.02;;;;;;;;;;5012346;28;20030;-72
2021/12/09 11:17:38;;;;;;;8.50;6.85;;;;;;;;;;5011801;28;20068;-81
2021/12/09 11:20:05;;;;;;;9.15;7.00;;;;;;;;;;5010303;28;20029;-82
2021/12/09 11:22:36;;;;;;;8.80;6.32;;;;;;;;;;5013435;28;20048;-81
2021/12/09 11:25:06;;;;;;;10.10;6.90;;;;;;;;;;5018660;28;20108;-81
2021/12/09 11:27:32;;;;;;;8.70;5.90;;;;;;;;;;5009745;28;20112;-80
2021/12/09 11:30:18;;;;;;;7.00;5.50;;;;;;;;;;5011821;28;20026;-82
2021/12/09 11:32:49;;;;;;;6.20;4.72;;;;;;;;;;5010674;28;20373;-79
2021/12/09 11:35:28;;;;;;;6.32;5.45;;;;;;;;;;5012271;28;20405;-82
2021/12/09 11:40:52;;;;;;;6.32;5.05;;;;;;;;;;5011776;28;20030;-81
2021/12/09 11:43:36;;;;;;;6.47;4.93;;;;;;;;;;5011113;28;20081;-79
2021/12/09 11:46:03;;;;;;;7.05;5.20;;;;;;;;;;5010461;28;20469;-79
2021/12/09 11:48:29;;;;;;;7.32;5.75;;;;;;;;;;5018028;28;20558;-81
2021/12/09 11:50:56;;;;;;;5.40;4.43;;;;;;;;;;5018636;28;20519;-82
2021/12/09 11:53:26;;;;;;;6.18;5.57;;;;;;;;;;5022073;28;20025;-82
2021/12/09 11:56:08;;;;;;;13.88;8.98;;;;;;;;;;5023956;28;20021;-81
2021/12/09 11:58:43;;;;;;;38.10;21.83;;;;;;;;;;5020001;28;20429;-80
2021/12/09 12:07:11;;;;;;;6.72;5.38;;;;;;;;;;5020541;28;20148;-84
2021/12/09 12:20:49;;;;;;;18.35;13.52;;;;;;;;;;5027283;28;20537;-79
2021/12/09 12:23:45;;;;;;;8.15;6.43;;;;;;;;;;4996980;28;20527;-80
2021/12/09 12:26:46;;;;;;;6.32;5.40;;;;;;;;;;5019049;28;20063;-82
2021/12/09 12:37:21;;;;;;;5.75;5.07;;;;;;;;;;5020153;28;20579;-79
2021/12/09 12:40:05;;;;;;;5.70;4.22;;;;;;;;;;5018080;28;20084;-80
2021/12/09 12:42:49;;;;;;;7.05;4.78;;;;;;;;;;5016991;28;20374;-79
2021/12/09 12:45:33;;;;;;;6.03;4.65;;;;;;;;;;5032722;28;20037;-81
2021/12/09 12:50:34;;;;;;;21.05;15.95;;;;;;;;;;5020703;28;20041;-81
2021/12/09 12:53:21;;;;;;;7.35;5.57;;;;;;;;;;5023562;28;20511;-81
2021/12/09 12:56:09;;;;;;;7.95;5.10;;;;;;;;;;5018409;28;20044;-80
2021/12/09 12:58:35;;;;;;;5.80;4.30;;;;;;;;;;5020742;28;20499;-82
2021/12/09 13:01:22;;;;;;;9.38;6.45;;;;;;;;;;5024781;28;20025;-79
2021/12/09 13:03:53;;;;;;;6.95;5.15;;;;;;;;;;5024845;28;20049;-83
2021/12/09 13:06:41;;;;;;;9.20;6.00;;;;;;;;;;5023663;28;20137;-78
2021/12/09 13:12:04;;;;;;;10.10;8.52;;;;;;;;;;5028656;28;20025;-79
2021/12/09 13:14:34;;;;;;;18.38;12.57;;;;;;;;;;5024101;28;20025;-80
2021/12/09 13:17:13;;;;;;;7.97;5.90;;;;;;;;;;5024530;28;20132;-82
2021/12/09 13:19:58;;;;;;;6.65;5.28;;;;;;;;;;5031327;28;20072;-80
2021/12/09 13:22:35;;;;;;;7.65;5.82;;;;;;;;;;5031566;28;20431;-83
2021/12/09 13:25:25;;;;;;;8.20;5.97;;;;;;;;;;5030751;28;20037;-80
2021/12/09 13:27:59;;;;;;;8.45;5.88;;;;;;;;;;5034437;28;20030;-80
2021/12/09 13:48:59;;;;;;;6.00;5.03;;;;;;;;;;5003908;28;20046;-79
2021/12/09 13:51:52;;;;;;;9.05;6.57;;;;;;;;;;5027269;28;20045;-83
2021/12/09 13:54:28;;;;;;;11.02;7.60;;;;;;;;;;5034098;28;20033;-77
2021/12/09 13:56:57;;;;;;;7.05;5.20;;;;;;;;;;5026905;28;20514;-78
2021/12/09 13:59:24;;;;;;;7.78;5.95;;;;;;;;;;5014697;28;20030;-79
2021/12/09 14:01:52;;;;;;;6.68;5.30;;;;;;;;;;5023320;28;20029;-81
2021/12/09 14:04:21;;;;;;;8.05;5.55;;;;;;;;;;5016279;28;20104;-77
2021/12/09 14:06:54;;;;;;;7.30;4.47;;;;;;;;;;5013229;28;20033;-78
2021/12/09 14:09:21;;;;;;;8.35;4.68;;;;;;;;;;5014603;28;20026;-78
2021/12/09 14:11:49;;;;;;;6.82;5.43;;;;;;;;;;5014421;28;20109;-77
2021/12/09 14:14:20;;;;;;;9.98;6.15;;;;;;;;;;5012715;28;20065;-78
2021/12/09 14:17:03;;;;;;;5.82;4.10;;;;;;;;;;5014263;28;20500;-80
2021/12/09 14:21:58;;;;;;;9.10;5.57;;;;;;;;;;5026840;28;20099;-79
2021/12/09 14:24:27;;;;;;;6.70;4.07;;;;;;;;;;5018795;28;20040;-81
2021/12/09 14:26:58;;;;;;;8.75;5.15;;;;;;;;;;5021685;28;20060;-80
2021/12/09 14:29:24;;;;;;;6.75;4.55;;;;;;;;;;5026880;28;20464;-80
2021/12/09 14:31:52;;;;;;;5.82;4.47;;;;;;;;;;5031080;28;20025;-81
2021/12/09 14:34:19;;;;;;;3.88;3.30;;;;;;;;;;5020597;28;20117;-80
2021/12/09 14:36:45;;;;;;;5.95;3.75;;;;;;;;;;5018353;28;20044;-78
2021/12/09 14:39:14;;;;;;;5.53;4.15;;;;;;;;;;5029426;28;20105;-71
2021/12/09 14:41:40;;;;;;;5.30;4.22;;;;;;;;;;4995980;28;20401;-78
2021/12/09 14:44:09;;;;;;;5.28;4.10;;;;;;;;;;5013382;28;20045;-78
2021/12/09 14:46:39;;;;;;;5.93;4.05;;;;;;;;;;5013778;28;20030;-78
2021/12/09 14:49:34;;;;;;;4.22;3.58;;;;;;;;;;5018115;28;20030;-79
2021/12/09 14:52:02;;;;;;;;;;;;;;;;;;5002148;28;20038;-79
2021/12/09 14:54:28;;;;;;;7.30;4.60;;;;;;;;;;5018267;28;20431;-81
2021/12/09 14:57:08;;;;;;;4.65;3.88;;;;;;;;;;5013652;28;20363;-79
2021/12/09 14:59:35;;;;;;;7.32;4.50;;;;;;;;;;5013352;28;20083;-79
2021/12/09 15:02:29;;;;;;;6.45;4.82;;;;;;;;;;5013168;28;20037;-80
2021/12/09 15:05:04;;;;;;;14.63;9.75;;;;;;;;;;5018896;28;20036;-83
2021/12/09 15:07:40;;;;;;;8.48;4.47;;;;;;;;;;5015159;28;20096;-78
2021/12/09 15:10:11;;;;;;;7.60;4.43;;;;;;;;;;5026915;28;20132;-77
2021/12/09 15:12:39;;;;;;;8.10;5.78;;;;;;;;;;5020241;28;20523;-77
2021/12/09 15:15:07;;;;;;;6.30;4.60;;;;;;;;;;5018436;28;20397;-77
2021/12/09 15:17:34;;;;;;;6.15;4.55;;;;;;;;;;5018455;28;20048;-77
2021/12/09 15:20:01;;;;;;;6.80;4.50;;;;;;;;;;5017239;28;20128;-77
2021/12/09 15:22:45;;;;;;;6.25;3.70;;;;;;;;;;5015345;28;20030;-77
2021/12/09 15:25:14;;;;;;;4.88;3.67;;;;;;;;;;4994328;28;20096;-77
2021/12/09 15:27:49;;;;;;;4.88;3.83;;;;;;;;;;5002852;28;20066;-76
2021/12/09 15:30:16;;;;;;;5.32;3.90;;;;;;;;;;5020776;28;20058;-78
2021/12/09 15:33:01;;;;;;;5.30;3.67;;;;;;;;;;5012140;28;20025;-77
2021/12/09 15:35:26;;;;;;;;;;;;;;;;;;5018342;28;20102;-77
2021/12/09 15:37:53;;;;;;;4.78;3.55;;;;;;;;;;5015518;28;19905;-76